createdAt,value
2018-08-21T00:01:04.768Z,4.72
2018-08-21T00:03:33.934Z,3.90
2018-08-21T00:06:04.333Z,3.77
2018-08-21T00:08:33.246Z,3.85
2018-08-21T00:11:13.343Z,5.20
2018-08-21T00:13:42.281Z,4.67
2018-08-21T00:16:12.353Z,5.22
2018-08-21T00:18:41.222Z,4.40
2018-08-21T00:21:10.102Z,4.03
2018-08-21T00:23:38.967Z,4.40
2018-08-21T00:26:07.938Z,4.58
2018-08-21T00:28:36.830Z,4.20
2018-08-21T00:31:05.984Z,3.87
2018-08-21T00:33:34.910Z,4.75
2018-08-21T00:36:03.906Z,5.10
2018-08-21T00:38:32.826Z,4.15
2018-08-21T00:41:01.729Z,5.30
2018-08-21T00:43:30.639Z,4.72
2018-08-21T00:45:59.504Z,4.00
2018-08-21T00:48:28.425Z,4.25
2018-08-21T00:50:57.368Z,4.70
2018-08-21T00:53:26.326Z,4.92
2018-08-21T00:55:55.310Z,4.40
2018-08-21T00:58:24.326Z,5.03
2018-08-21T01:00:53.184Z,4.85
2018-08-21T01:03:22.117Z,5.20
2018-08-21T01:05:51.023Z,4.58
2018-08-21T01:08:19.895Z,4.67
2018-08-21T01:10:48.814Z,5.08
2018-08-21T01:13:17.694Z,4.60
2018-08-21T01:15:46.635Z,4.25
2018-08-21T01:18:15.517Z,5.17
2018-08-21T01:20:44.435Z,6.33
2018-08-21T01:23:13.321Z,5.65
2018-08-21T01:25:42.292Z,5.55
2018-08-21T01:28:11.157Z,5.75
2018-08-21T01:30:40.106Z,4.72
2018-08-21T01:33:09.398Z,4.37
2018-08-21T01:35:38.310Z,4.83
2018-08-21T01:38:07.212Z,5.30
2018-08-21T01:40:36.125Z,5.28
2018-08-21T01:43:05.062Z,4.55
2018-08-21T01:45:34.051Z,6.35
2018-08-21T01:48:03.084Z,4.95
2018-08-21T01:50:32.055Z,4.65
2018-08-21T01:53:00.951Z,5.40
2018-08-21T01:55:29.834Z,5.58
2018-08-21T01:57:58.727Z,4.45
2018-08-21T02:00:27.695Z,5.67
2018-08-21T02:02:56.610Z,5.10
2018-08-21T02:05:30.601Z,5.95
2018-08-21T02:07:59.675Z,4.90
2018-08-21T02:10:28.664Z,5.53
2018-08-21T02:12:57.534Z,4.78
2018-08-21T02:15:26.564Z,4.78
2018-08-21T02:17:55.458Z,4.47
2018-08-21T02:20:24.431Z,5.00
2018-08-21T02:22:53.407Z,5.95
2018-08-21T02:25:22.292Z,5.47
2018-08-21T02:27:51.217Z,4.95
2018-08-21T02:30:20.206Z,5.00
2018-08-21T02:32:49.074Z,4.85
2018-08-21T02:35:18.061Z,5.30
2018-08-21T02:37:46.911Z,5.28
2018-08-21T02:40:22.295Z,4.78
2018-08-21T02:42:52.227Z,4.55
2018-08-21T02:45:22.486Z,4.70
2018-08-21T02:47:51.369Z,5.53
2018-08-21T02:50:20.256Z,5.42
2018-08-21T02:52:49.188Z,4.80
2018-08-21T02:55:18.120Z,5.42
2018-08-21T02:57:47.075Z,5.33
2018-08-21T03:00:15.988Z,5.22
2018-08-21T03:02:45.409Z,5.10
2018-08-21T03:05:14.478Z,5.35
2018-08-21T03:07:43.405Z,5.65
2018-08-21T03:10:12.415Z,5.40
2018-08-21T03:12:41.305Z,6.00
2018-08-21T03:15:10.206Z,6.78
2018-08-21T03:17:39.114Z,5.03
2018-08-21T03:20:08.011Z,5.85
2018-08-21T03:22:36.923Z,5.47
2018-08-21T03:25:05.954Z,5.58
2018-08-21T03:27:34.845Z,6.25
2018-08-21T03:30:03.847Z,5.90
2018-08-21T03:32:32.713Z,5.35
2018-08-21T03:35:01.633Z,4.92
2018-08-21T03:37:30.564Z,5.53
2018-08-21T03:39:59.465Z,5.17
2018-08-21T03:42:28.362Z,5.00
2018-08-21T03:45:01.875Z,5.55
2018-08-21T03:47:36.430Z,5.10
2018-08-21T03:50:08.884Z,6.75
2018-08-21T03:52:37.845Z,5.90
2018-08-21T03:55:09.209Z,7.03
2018-08-21T03:57:39.200Z,5.97
2018-08-21T04:00:14.669Z,5.72
2018-08-21T04:02:43.694Z,6.12
2018-08-21T04:05:12.616Z,5.75
2018-08-21T04:07:41.721Z,5.78
2018-08-21T04:10:10.636Z,6.30
2018-08-21T04:12:39.649Z,6.60
2018-08-21T04:15:08.549Z,5.00
2018-08-21T04:17:37.456Z,5.10
2018-08-21T04:20:11.070Z,4.78
2018-08-21T04:22:39.989Z,5.70
2018-08-21T04:25:08.996Z,7.00
2018-08-21T04:27:37.932Z,5.85
2018-08-21T04:30:10.101Z,5.33
2018-08-21T04:32:39.030Z,6.20
2018-08-21T04:35:07.958Z,5.92
2018-08-21T04:37:36.903Z,6.12
2018-08-21T04:40:05.856Z,7.40
2018-08-21T04:42:34.758Z,8.50
2018-08-21T04:45:06.270Z,8.40
2018-08-21T04:47:39.054Z,6.25
2018-08-21T04:50:09.140Z,8.13
2018-08-21T04:52:40.099Z,6.90
2018-08-21T04:55:09.119Z,7.10
2018-08-21T04:57:38.023Z,6.85
2018-08-21T05:00:07.640Z,7.95
2018-08-21T05:02:46.380Z,6.53
2018-08-21T05:05:17.363Z,8.25
2018-08-21T05:08:02.475Z,6.80
2018-08-21T05:10:31.401Z,7.40
2018-08-21T05:13:00.772Z,7.67
2018-08-21T05:15:30.886Z,6.80
2018-08-21T05:18:01.683Z,7.12
2018-08-21T05:20:31.870Z,7.45
2018-08-21T05:23:00.848Z,7.85
2018-08-21T05:25:40.903Z,7.65
2018-08-21T05:28:09.804Z,6.85
2018-08-21T05:30:43.865Z,7.60
2018-08-21T05:33:12.887Z,7.40
2018-08-21T05:35:41.870Z,6.97
2018-08-21T05:38:10.911Z,6.47
2018-08-21T05:40:39.784Z,6.70
2018-08-21T05:43:08.763Z,6.40
2018-08-21T05:45:37.696Z,6.00
2018-08-21T05:48:08.245Z,6.00
2018-08-21T05:50:37.743Z,5.30
2018-08-21T05:53:06.648Z,6.20
2018-08-21T05:55:45.102Z,6.30
2018-08-21T05:58:14.013Z,6.10
2018-08-21T06:00:42.915Z,5.72
2018-08-21T06:03:11.842Z,6.33
2018-08-21T06:05:40.922Z,5.55
2018-08-21T06:08:10.611Z,5.97
2018-08-21T06:10:39.532Z,5.65
2018-08-21T06:13:09.719Z,4.60
2018-08-21T06:15:41.728Z,4.85
2018-08-21T06:18:20.647Z,5.22
2018-08-21T06:21:03.960Z,6.55
2018-08-21T06:23:34.348Z,3.75
2018-08-21T06:26:04.574Z,4.55
2018-08-21T06:28:36.444Z,4.62
2018-08-21T06:31:05.718Z,4.15
2018-08-21T06:33:34.671Z,4.20
2018-08-21T06:36:05.344Z,4.05
2018-08-21T06:38:34.703Z,3.67
2018-08-21T06:41:03.667Z,8.50
2018-08-21T06:43:32.609Z,7.20
2018-08-21T06:46:11.460Z,4.97
2018-08-21T06:48:40.378Z,5.53
2018-08-21T06:51:09.297Z,5.35
2018-08-21T06:53:38.202Z,4.92
2018-08-21T06:56:07.110Z,5.20
2018-08-21T06:58:36.017Z,4.00
2018-08-21T07:01:10.547Z,4.58
2018-08-21T07:03:39.539Z,5.22
2018-08-21T07:06:08.534Z,5.67
2018-08-21T07:08:37.484Z,4.42
2018-08-21T07:11:13.238Z,5.00
2018-08-21T07:13:42.131Z,4.40
2018-08-21T07:16:11.248Z,5.08
2018-08-21T07:18:40.118Z,4.22
2018-08-21T07:21:08.999Z,5.28
2018-08-21T07:23:37.926Z,4.70
2018-08-21T07:26:06.842Z,4.75
2018-08-21T07:28:35.717Z,4.30
2018-08-21T07:31:04.695Z,4.53
2018-08-21T07:33:34.263Z,5.58
2018-08-21T07:36:03.130Z,5.30
2018-08-21T07:38:38.366Z,4.50
2018-08-21T07:41:07.478Z,4.20
2018-08-21T07:43:36.378Z,5.12
2018-08-21T07:46:11.229Z,3.60
2018-08-21T07:48:47.386Z,5.62
2018-08-21T07:51:16.644Z,3.33
2018-08-21T07:53:46.914Z,4.58
2018-08-21T07:56:16.902Z,3.37
2018-08-21T07:59:04.944Z,3.12
2018-08-21T08:01:52.338Z,2.90
2018-08-21T08:04:25.645Z,3.20
2018-08-21T08:06:55.764Z,2.92
2018-08-21T08:09:25.198Z,3.40
2018-08-21T08:11:54.280Z,2.10
2018-08-21T08:14:23.179Z,3.08
2018-08-21T08:16:52.135Z,2.52
2018-08-21T08:19:21.028Z,2.50
2018-08-21T08:21:50.202Z,2.35
2018-08-21T08:24:20.006Z,2.52
2018-08-21T08:26:48.900Z,2.58
2018-08-21T08:29:17.776Z,2.20
2018-08-21T08:31:46.661Z,3.17
2018-08-21T08:34:15.620Z,3.15
2018-08-21T08:36:44.519Z,2.83
2018-08-21T08:39:13.487Z,2.60
2018-08-21T08:41:43.685Z,2.52
2018-08-21T08:44:12.510Z,2.30
2018-08-21T08:46:41.435Z,2.55
2018-08-21T08:49:11.183Z,2.47
2018-08-21T08:51:40.661Z,2.33
2018-08-21T08:54:09.565Z,1.90
2018-08-21T08:56:43.775Z,2.70
2018-08-21T08:59:12.749Z,2.17
2018-08-21T09:01:41.615Z,2.40
2018-08-21T09:04:10.521Z,2.25
2018-08-21T09:06:39.400Z,3.05
2018-08-21T09:09:09.767Z,2.50
2018-08-21T09:11:44.038Z,2.75
2018-08-21T09:14:12.943Z,2.65
2018-08-21T09:16:41.817Z,4.30
2018-08-21T09:19:10.717Z,3.08
2018-08-21T09:21:39.606Z,2.90
2018-08-21T09:24:08.519Z,2.45
2018-08-21T09:26:37.787Z,2.10
2018-08-21T09:29:07.085Z,2.20
2018-08-21T09:31:41.841Z,2.30
2018-08-21T09:34:10.762Z,2.42
2018-08-21T09:36:48.330Z,2.92
2018-08-21T09:39:17.707Z,2.02
2018-08-21T09:41:46.754Z,2.87
2018-08-21T09:44:15.657Z,2.87
2018-08-21T09:46:44.777Z,3.37
2018-08-21T09:49:13.654Z,2.35
2018-08-21T09:51:42.597Z,2.70
2018-08-21T09:54:11.463Z,3.27
2018-08-21T09:56:40.366Z,2.52
2018-08-21T09:59:18.233Z,2.50
2018-08-21T10:01:52.479Z,3.20
2018-08-21T10:04:26.559Z,3.20
2018-08-21T10:06:55.585Z,3.25
2018-08-21T10:09:24.498Z,3.20
2018-08-21T10:11:53.388Z,3.25
2018-08-21T10:14:22.325Z,2.55
2018-08-21T10:16:51.206Z,2.35
2018-08-21T10:19:20.194Z,3.98
2018-08-21T10:21:49.051Z,3.40
2018-08-21T10:24:17.978Z,2.67
2018-08-21T10:26:46.870Z,4.20
2018-08-21T10:29:15.807Z,3.30
2018-08-21T10:31:44.735Z,2.90
2018-08-21T10:34:13.601Z,2.70
2018-08-21T10:36:42.524Z,3.27
2018-08-21T10:39:12.037Z,5.25
2018-08-21T10:41:40.964Z,2.62
2018-08-21T10:44:09.907Z,3.20
2018-08-21T10:46:38.827Z,3.25
2018-08-21T10:49:07.691Z,3.00
2018-08-21T10:51:36.713Z,2.95
2018-08-21T10:54:05.598Z,3.95
2018-08-21T10:56:34.518Z,3.20
2018-08-21T10:59:03.403Z,3.47
2018-08-21T11:01:32.339Z,3.08
2018-08-21T11:04:01.208Z,3.20
2018-08-21T11:06:30.107Z,3.12
2018-08-21T11:08:58.983Z,3.87
2018-08-21T11:11:27.871Z,3.20
2018-08-21T11:14:04.099Z,3.77
2018-08-21T11:16:33.725Z,3.70
2018-08-21T11:19:03.295Z,4.03
2018-08-21T11:21:32.786Z,4.97
2018-08-21T11:24:01.842Z,3.77
2018-08-21T11:26:30.786Z,5.20
2018-08-21T11:29:00.042Z,4.10
2018-08-21T11:31:29.315Z,4.37
2018-08-21T11:33:58.278Z,3.98
2018-08-21T11:36:27.153Z,4.17
2018-08-21T11:38:56.035Z,5.70
2018-08-21T11:41:25.050Z,3.08
2018-08-21T11:43:53.917Z,3.45
2018-08-21T11:46:22.857Z,3.42
2018-08-21T11:48:51.749Z,4.65
2018-08-21T11:51:20.638Z,3.20
2018-08-21T11:53:49.492Z,4.40
2018-08-21T11:56:18.415Z,5.12
2018-08-21T11:58:47.301Z,4.70
2018-08-21T12:01:16.253Z,4.50
2018-08-21T12:03:45.127Z,6.00
2018-08-21T12:06:14.033Z,5.90
2018-08-21T12:08:42.952Z,5.90
2018-08-21T12:11:11.867Z,4.62
2018-08-21T12:13:40.805Z,4.25
2018-08-21T12:16:09.713Z,5.28
2018-08-21T12:18:38.660Z,5.22
2018-08-21T12:21:07.511Z,5.35
2018-08-21T12:23:36.493Z,5.10
2018-08-21T12:26:05.431Z,4.05
2018-08-21T12:28:34.359Z,3.83
2018-08-21T12:31:03.301Z,3.55
2018-08-21T12:33:32.265Z,3.70
2018-08-21T12:36:01.134Z,5.45
2018-08-21T12:38:30.055Z,3.52
2018-08-21T12:40:58.947Z,4.58
2018-08-21T12:43:27.931Z,3.90
2018-08-21T12:45:56.814Z,3.83
2018-08-21T12:48:25.686Z,3.05
2018-08-21T12:50:54.578Z,3.92
2018-08-21T12:53:23.433Z,4.35
2018-08-21T12:55:52.329Z,3.80
2018-08-21T12:58:21.196Z,3.25
2018-08-21T13:00:50.184Z,4.03
2018-08-21T13:03:19.063Z,3.37
2018-08-21T13:05:48.014Z,3.33
2018-08-21T13:08:16.877Z,3.92
2018-08-21T13:10:45.848Z,4.22
2018-08-21T13:13:14.719Z,2.90
2018-08-21T13:15:43.705Z,4.40
2018-08-21T13:18:12.615Z,4.33
2018-08-21T13:20:41.569Z,3.20
2018-08-21T13:23:10.494Z,3.75
2018-08-21T13:25:39.401Z,4.25
2018-08-21T13:28:08.303Z,3.22
2018-08-21T13:30:37.185Z,3.33
2018-08-21T13:33:06.192Z,3.65
2018-08-21T13:35:35.087Z,2.30
2018-08-21T13:38:04.075Z,2.77
2018-08-21T13:40:33.014Z,2.65
2018-08-21T13:43:01.917Z,3.15
2018-08-21T13:45:30.786Z,2.58
2018-08-21T13:47:59.775Z,2.40
2018-08-21T13:50:28.643Z,3.00
2018-08-21T13:52:57.547Z,3.08
2018-08-21T13:55:26.464Z,2.60
2018-08-21T13:57:55.358Z,2.37
2018-08-21T14:00:24.291Z,2.45
2018-08-21T14:02:53.170Z,2.80
2018-08-21T14:05:22.740Z,2.75
2018-08-21T14:07:51.613Z,2.60
2018-08-21T14:10:20.508Z,2.58
2018-08-21T14:12:49.485Z,2.65
2018-08-21T14:15:18.334Z,2.40
2018-08-21T14:17:47.233Z,2.10
2018-08-21T14:20:16.153Z,2.35
2018-08-21T14:22:45.004Z,2.42
2018-08-21T14:25:13.951Z,2.70
2018-08-21T14:30:59.690Z,1.60
2018-08-21T14:33:33.771Z,1.27
2018-08-21T14:38:56.674Z,1.47
2018-08-21T14:41:25.750Z,1.75
2018-08-21T14:43:54.637Z,1.75
2018-08-21T14:46:23.867Z,1.32
2018-08-21T14:48:52.655Z,2.27
2018-08-21T14:51:21.599Z,2.02
2018-08-21T14:53:50.491Z,1.90
2018-08-21T14:56:19.370Z,1.98
2018-08-21T14:58:48.298Z,1.72
2018-08-21T15:01:17.195Z,1.75
2018-08-21T15:03:46.102Z,2.55
2018-08-21T15:06:15.031Z,2.55
2018-08-21T15:08:43.949Z,2.15
2018-08-21T15:11:12.832Z,1.50
2018-08-21T15:13:41.794Z,2.30
2018-08-21T15:16:10.870Z,1.85
2018-08-21T15:18:39.742Z,1.87
2018-08-21T15:21:09.339Z,1.92
2018-08-21T15:23:38.346Z,1.98
2018-08-21T15:26:07.366Z,1.70
2018-08-21T15:28:36.300Z,1.40
2018-08-21T15:31:05.565Z,1.55
2018-08-21T15:33:34.614Z,1.67
2018-08-21T15:36:04.050Z,1.70
2018-08-21T15:38:33.035Z,1.35
2018-08-21T15:41:02.082Z,2.10
2018-08-21T15:43:31.053Z,2.12
2018-08-21T15:46:00.253Z,1.45
2018-08-21T15:48:29.210Z,1.42
2018-08-21T15:50:58.128Z,1.65
2018-08-21T15:53:28.371Z,1.32
2018-08-21T15:55:57.676Z,1.65
2018-08-21T15:58:27.362Z,2.42
2018-08-21T16:00:56.258Z,1.50
2018-08-21T16:03:25.214Z,1.70
2018-08-21T16:05:54.100Z,1.17
2018-08-21T16:08:22.996Z,1.50
2018-08-21T16:10:51.868Z,1.95
2018-08-21T16:13:20.786Z,1.50
2018-08-21T16:15:49.706Z,2.30
2018-08-21T16:18:18.631Z,1.40
2018-08-21T16:20:47.543Z,1.90
2018-08-21T16:23:16.450Z,2.00
2018-08-21T16:25:45.434Z,2.42
2018-08-21T16:28:14.338Z,1.40
2018-08-21T16:30:43.238Z,1.57
2018-08-21T16:33:12.402Z,1.45
2018-08-21T16:35:41.315Z,1.92
2018-08-21T16:38:10.240Z,2.60
2018-08-21T16:40:39.284Z,1.67
2018-08-21T16:43:08.252Z,1.67
2018-08-21T16:45:37.505Z,1.70
2018-08-21T16:48:06.420Z,1.80
2018-08-21T16:50:35.402Z,2.00
2018-08-21T16:53:04.426Z,2.00
2018-08-21T16:55:33.324Z,1.50
2018-08-21T16:58:02.288Z,3.37
2018-08-21T17:00:31.213Z,2.25
2018-08-21T17:03:00.101Z,2.20
2018-08-21T17:05:30.293Z,1.95
2018-08-21T17:07:59.354Z,1.80
2018-08-21T17:10:28.397Z,2.62
2018-08-21T17:12:57.386Z,1.77
2018-08-21T17:15:26.303Z,1.65
2018-08-21T17:17:55.228Z,2.27
2018-08-21T17:20:24.157Z,1.85
2018-08-21T17:22:53.162Z,1.90
2018-08-21T17:25:22.094Z,1.72
2018-08-21T17:27:51.083Z,3.02
2018-08-21T17:30:20.051Z,1.80
2018-08-21T17:32:48.995Z,3.08
2018-08-21T17:35:17.992Z,3.67
2018-08-21T17:37:46.908Z,1.70
2018-08-21T17:40:15.903Z,2.25
2018-08-21T17:42:44.829Z,2.35
2018-08-21T17:45:13.761Z,2.55
2018-08-21T17:47:42.679Z,2.30
2018-08-21T17:50:11.696Z,2.72
2018-08-21T17:52:40.591Z,2.40
2018-08-21T17:55:09.593Z,2.00
2018-08-21T17:57:38.534Z,2.02
2018-08-21T18:00:09.006Z,1.95
2018-08-21T18:02:38.015Z,2.15
2018-08-21T18:05:07.630Z,2.15
2018-08-21T18:07:36.579Z,2.33
2018-08-21T18:10:05.648Z,2.98
2018-08-21T18:12:34.535Z,2.42
2018-08-21T18:15:03.842Z,2.33
2018-08-21T18:17:32.891Z,2.52
2018-08-21T18:20:01.809Z,2.10
2018-08-21T18:22:31.066Z,3.05
2018-08-21T18:24:59.932Z,3.05
2018-08-21T18:27:28.827Z,2.98
2018-08-21T18:29:57.724Z,2.87
2018-08-21T18:32:26.684Z,3.80
2018-08-21T18:34:55.551Z,3.15
2018-08-21T18:37:24.486Z,3.10
2018-08-21T18:39:53.432Z,3.20
2018-08-21T18:42:22.429Z,2.95
2018-08-21T18:44:51.456Z,2.98
2018-08-21T18:47:20.376Z,3.17
2018-08-21T18:49:49.279Z,3.20
2018-08-21T18:52:18.376Z,4.40
2018-08-21T18:54:47.500Z,3.05
2018-08-21T18:57:16.525Z,3.77
2018-08-21T18:59:45.525Z,3.55
2018-08-21T19:02:14.639Z,3.50
2018-08-21T19:04:43.507Z,3.35
2018-08-21T19:07:12.516Z,3.08
2018-08-21T19:09:41.435Z,3.65
2018-08-21T19:12:10.369Z,3.15
2018-08-21T19:14:39.228Z,3.35
2018-08-21T19:17:08.143Z,3.87
2018-08-21T19:19:37.038Z,3.98
2018-08-21T19:22:06.021Z,4.70
2018-08-21T19:24:34.923Z,3.52
2018-08-21T19:27:03.885Z,6.22
2018-08-21T19:29:32.901Z,4.55
2018-08-21T19:32:01.843Z,3.85
2018-08-21T19:34:30.727Z,3.45
2018-08-21T19:36:59.670Z,3.65
2018-08-21T19:39:28.601Z,3.72
2018-08-21T19:41:57.528Z,4.17
2018-08-21T19:44:26.523Z,3.42
2018-08-21T19:46:55.486Z,3.87
2018-08-21T19:49:24.436Z,3.70
2018-08-21T19:51:53.374Z,5.75
2018-08-21T19:54:22.407Z,4.33
2018-08-21T19:56:52.121Z,3.95
2018-08-21T19:59:21.234Z,4.62
2018-08-21T20:01:51.219Z,3.80
2018-08-21T20:04:20.200Z,4.70
2018-08-21T20:06:49.091Z,4.80
2018-08-21T20:09:19.833Z,4.35
2018-08-21T20:11:48.940Z,4.37
2018-08-21T20:14:17.952Z,4.62
2018-08-21T20:16:46.941Z,5.17
2018-08-21T20:19:16.084Z,3.83
2018-08-21T20:21:44.997Z,4.25
2018-08-21T20:24:13.915Z,4.25
2018-08-21T20:26:42.862Z,3.98
2018-08-21T20:29:12.435Z,4.87
2018-08-21T20:31:41.367Z,3.83
2018-08-21T20:34:10.239Z,4.62
2018-08-21T20:36:39.172Z,5.00
2018-08-21T20:39:09.824Z,4.60
2018-08-21T20:41:38.739Z,4.08
2018-08-21T20:44:07.666Z,5.58
2018-08-21T20:46:36.542Z,4.67
2018-08-21T20:49:05.589Z,3.60
2018-08-21T20:51:34.488Z,4.72
2018-08-21T20:54:03.399Z,4.12
2018-08-21T20:56:32.320Z,4.58
2018-08-21T20:59:01.180Z,5.30
2018-08-21T21:01:30.072Z,4.70
2018-08-21T21:03:58.976Z,4.10
2018-08-21T21:06:28.103Z,5.10
2018-08-21T21:08:57.085Z,5.15
2018-08-21T21:11:26.000Z,3.98
2018-08-21T21:14:06.257Z,4.55
2018-08-21T21:16:46.547Z,4.30
2018-08-21T21:19:26.694Z,3.83
2018-08-21T21:22:06.652Z,4.35
2018-08-21T21:24:40.974Z,5.20
2018-08-21T21:27:09.970Z,5.55
2018-08-21T21:29:38.856Z,4.90
2018-08-21T21:32:07.746Z,4.83
2018-08-21T21:34:36.603Z,7.35
2018-08-21T21:37:05.575Z,5.40
2018-08-21T21:39:34.425Z,5.95
2018-08-21T21:42:03.355Z,4.72
2018-08-21T21:44:32.293Z,4.45
2018-08-21T21:47:01.206Z,4.67
2018-08-21T21:49:30.375Z,4.22
2018-08-21T21:51:59.328Z,4.47
2018-08-21T21:54:28.260Z,4.35
2018-08-21T21:56:57.169Z,4.58
2018-08-21T21:59:26.159Z,4.10
2018-08-21T22:01:55.090Z,4.95
2018-08-21T22:04:24.086Z,4.72
2018-08-21T22:06:53.025Z,5.53
2018-08-21T22:09:21.940Z,5.17
2018-08-21T22:11:51.798Z,5.28
2018-08-21T22:14:20.741Z,4.50
2018-08-21T22:16:49.588Z,6.00
2018-08-21T22:19:18.544Z,4.75
2018-08-21T22:21:47.473Z,5.53
2018-08-21T22:24:16.331Z,6.55
2018-08-21T22:26:45.359Z,5.12
2018-08-21T22:29:14.241Z,5.15
2018-08-21T22:31:43.166Z,5.12
2018-08-21T22:34:12.027Z,4.70
2018-08-21T22:36:57.339Z,4.95
2018-08-21T22:39:26.646Z,5.72
2018-08-21T22:41:55.947Z,5.03
2018-08-21T22:44:25.243Z,5.65
2018-08-21T22:46:54.572Z,4.70
2018-08-21T22:49:23.842Z,4.00
2018-08-21T22:51:53.080Z,3.52
2018-08-21T22:54:22.028Z,4.78
2018-08-21T22:56:50.891Z,4.72
2018-08-21T22:59:19.789Z,4.50
2018-08-21T23:01:48.742Z,4.55
2018-08-21T23:04:17.635Z,4.70
2018-08-21T23:06:46.871Z,5.20
2018-08-21T23:09:15.786Z,5.15
2018-08-21T23:12:01.077Z,4.92
2018-08-21T23:14:31.618Z,5.25
2018-08-21T23:17:00.918Z,3.83
2018-08-21T23:19:30.290Z,5.83
2018-08-21T23:21:59.649Z,5.28
2018-08-21T23:24:28.910Z,4.33
2018-08-21T23:26:57.795Z,4.53
2018-08-21T23:29:26.667Z,4.15
2018-08-21T23:31:55.558Z,4.60
2018-08-21T23:34:24.418Z,4.95
2018-08-21T23:36:53.322Z,4.92
2018-08-21T23:39:22.190Z,4.37
2018-08-21T23:41:51.093Z,4.33
2018-08-21T23:44:19.982Z,5.45
2018-08-21T23:46:48.887Z,4.55
2018-08-21T23:49:17.865Z,5.15
2018-08-21T23:51:46.767Z,4.95
2018-08-21T23:54:15.633Z,5.03
2018-08-21T23:56:44.510Z,5.30
2018-08-21T23:59:13.447Z,5.50
